AirNav   ProFlight Series 2 Aviation Headset
 
 755 users online  

NH79 Falcon Station Heliport
West Epping, New Hampshire, USA

GOING TO WEST EPPING?


FAA INFORMATION EFFECTIVE 16 JULY 2020

Location

FAA Identifier: NH79
Lat/Long: 43-02-26.3070N 071-07-32.2190W
43-02.438450N 071-07.536983W
43.0406408,-71.1256164
(estimated)
Elevation: 160 ft. / 49 m (estimated)
Variation: 16W (1990)
From city: 2 miles W of WEST EPPING, NH
Time zone: UTC -4 (UTC -5 during Standard Time)
Zip code: 03042

Heliport Operations

Heliport use: Private use. Permission required prior to landing
Activation date: 02/1993
Control tower: no
ARTCC: BOSTON CENTER
FSS: BANGOR FLIGHT SERVICE STATION
Attendance: UNATNDD
Segmented circle: no

Heliport Communications

WX ASOS at MHT (15 nm SW): 119.55 (603-621-1766)
WX ASOS at DAW (17 nm NE): 135.275 (603-332-7814)
WX ASOS at CON (19 nm NW): 132.325 (603-224-6558)
WX ASOS at LWM (19 nm S): PHONE 978-687-8017

Nearby radio navigation aids

VOR radial/distance  VOR name  Freq  Var
PSMr274/13.1PEASE VOR/DME116.5016W
MHTr061/14.9MANCHESTER VOR/DME114.4015W
LWMr011/18.1LAWRENCE VOR/DME112.5015W
CONr134/22.4CONCORD VOR/DME112.9015W
ENEr241/32.2KENNEBUNK VOR/DME117.1017W

 
NDB name  Hdg/Dist  Freq  Var  ID
ROLLINS246/16.926016WESG . ... --.

Heliport Services

Runway Information

Helipad H1

Dimensions: 50 x 50 ft. / 15 x 15 m
Surface: turf
Traffic pattern: leftleft

Heliport Ownership and Management from official FAA records

Ownership: Privately-owned
Owner: MICHAEL E SWEENEY
NOTTINGHAM RD/FOLSOM MILL LA
WEST EPPING, NH 03042
Phone 603-679-5363
Manager: MICHAEL E SWEENEY
NOTTINGHAM RD/FOLSOM MILL LA
WEST EPPING, NH 08042
Phone 603-679-8304

Additional Remarks

A52-H1 TREES IN VICINITY OF PAD.
FOR CD CTC BOSTON APCH AT 603-594-5551.

Instrument Procedures

There are no published instrument procedures at NH79.

Some nearby airports with instrument procedures:

KPSM - Portsmouth International Airport at Pease (13 nm E)
KMHT - Manchester Airport (15 nm SW)
3B4 - Littlebrook Air Park (17 nm E)
KDAW - Skyhaven Airport (17 nm NE)
KCON - Concord Municipal Airport (19 nm NW)
KLWM - Lawrence Municipal Airport (19 nm S)
 
Loc | Ops | Rwys | IFR | FBO | Links
Com | Nav | Svcs | Stats | Notes
Area around NH79 (Falcon Station Heliport)
 
Road maps at: MapQuest Bing Google
 
Aerial photo
No photo
 
Sectional chart

 
Airport distance calculator
Flying to Falcon Station Heliport? Find the distance to fly.

From to NH79

Sunrise and sunset
Times for 03-Aug-2020
 Local
(UTC-4)
 Zulu
(UTC)
Morning civil twilight05:0709:07
Sunrise05:3909:39
Sunset20:0200:02
Evening civil twilight20:3400:34

Current date and time
Zulu (UTC)  03-Aug-2020 12:03:12
Local (UTC-4)  03-Aug-2020 08:03:12
 
METAR
KPSM 
14nm E 
031156Z 21009KT 10SM FEW150 SCT250 28/22 A2986 RMK AO2A SLP113 T02780216 10278 20226 52009
KMHT 
15nm SW 
031153Z 23007KT 10SM FEW025 FEW150 BKN250 27/23 A2987 RMK AO2 SLP124 T02720228 10272 20250 53013
KDAW 
17nm NE 
031151Z AUTO 10SM BKN011 26/23 A2987 RMK AO2 SLP110 T02610228 10267 20228 53009
KCON 
19nm NW 
031151Z AUTO 23011KT 10SM CLR 27/20 A2988 RMK AO2 SLP117 T02670200 10267 20233 53015 $
KLWM 
19nm S 
031154Z 22014G20KT 10SM CLR 27/22 A2990 RMK AO2 SLP125 70030 T02670222 10267 20244 52008
KASH 
24nm SW 
031156Z 23008KT 200V260 10SM CLR 27/23 A2990 RMK AO2 SLP127 T02670228 10267 20239 53012
KSFM 
27nm NE 
031156Z AUTO 21007G15KT 170V240 10SM FEW011 27/23 A2987 RMK AO2 SLP115 70003 T02670233 10267 20228 53005
TAF
KPSM 
14nm E 
031120Z 0312/0412 22007KT P6SM FEW050 BKN250 FM031500 27010G20KT P6SM SCT050 BKN250 FM032300 29004KT P6SM BKN200
KMHT 
15nm SW 
031120Z 0312/0412 22008KT P6SM BKN250 FM031400 27010G20KT P6SM SCT050 BKN250 FM040000 VRB03KT P6SM BKN200
KCON 
19nm NW 
031120Z 0312/0412 23007KT P6SM BKN250 FM031400 27010G20KT P6SM SCT050 BKN250 FM040000 VRB03KT P6SM BKN200
NOTAMs
Click for the latest NOTAMs
NOTAMs are issued by the DoD/FAA and will open in a separate window not controlled by AirNav.

 

 
 

Would you like to see your business listed on this page?

 If your business provides an interesting product or service to pilots, flight crews, aircraft, or users of the Falcon Station Heliport, you should consider listing it here.  To start the listing process, click on the button below
 
Add a business
 

Other Pages about Falcon Station Heliport

Update a link
 
Copyright © AirNav, LLC. All rights reserved. Privacy Policy  Contact